Terminal Aerodrome Forecast
Issued by NWS Sterling, VA

Current Version | Previous Version | Text Only | Print | Product List | Glossary Off
Versions: 1 2 3 4 5 6 7 8 9 10 11 12 13 14 15 16 17 18 19 20

178
FTUS41 KLWX 261514 AAA
TAFMRB
TAF AMD
KMRB 261514Z 2615/2712 11007KT P6SM OVC015
     FM261800 11008KT 4SM -DZ OVC008
     FM261900 11008KT 5SM -DZ OVC003
     FM262100 11008KT 2SM -DZRA OVC003
     FM270600 14005KT 1 1/2SM -RA OVC003=

USA.gov is the U.S. government's official web portal to all federal, state and local government web resources and services.